Etusivu
METAR-TAF:

METAR-TAF

Lentoasemat :

Xi’an Xianyangin kansainvälinen lentoasema

Xi’an, Kiina

Leveyspiiri: 34-26N, Pituuspiiri: 108-45E, korkeus merenpinnasta: 479 m

Tämänhetkinen sää

Tämä raportti tehtiin 50 minuuttia sitten, kello 15.00 UTC
Tuuli 2 kn eri suunnista
Lämpötila 2°C
Kosteus 87%
Ilmanpaine 1028 hPa
Näkyvyys 10 km tai enemmän
ei pilviä alle 1500 m:ssä eikä cumulonimbus-pilviä

METAR: ZLXY 131500Z VRB01MPS CAVOK 02/M00 Q1028 NOSIG

Aika: 23:50 (15:50 UTC)

Sääennuste

Tämä raportti tehtiin 6 tuntia ja 49 minuuttia sitten, kello 09.01 UTC
Ennuste voimassa 13. päivästä klo 12 UTC - 14. päivään klo 12 UTC
Tuuli 6 kn lännestä/lounaasta
Näkyvyys: 3000 m
usvaa

TAF: ZLXY 130901Z 1312/1412 24003MPS 3000 HZ NSC TX16/1407Z TN00/1323Z

Säähavainnot ja -ennusteet yli 4000 lentoasemalta (METAR- ja TAF-raportit).

Käytössä olevat sääasemat on merkitty karttaan keltaisilla ja punaisilla pisteillä.

Aseta hiiri pisteen päälle nähdäksesi sääaseman nimen.

Klikkaa sitten nähdäksesi säähavainnot ja -ennusteet.

Kartan vaihtaminen: klikkaa mustalla rastilla varustettuja vihreitä pisteitä, niin voit zoomata sisään; viivalla varustettua vihreää pistettä, niin voit zoomata ulos tai vihreitä nuolia, niin pääset viereisille kartoille.


METAR-TAF: